createdAt,value
2023-03-27T00:01:30.903Z,10.66
2023-03-27T00:04:00.622Z,10.67
2023-03-27T00:06:28.729Z,10.57
2023-03-27T00:08:56.608Z,10.25
2023-03-27T00:11:25.243Z,10.18
2023-03-27T00:13:56.048Z,10.14
2023-03-27T00:16:27.115Z,10.10
2023-03-27T00:18:55.805Z,10.30
2023-03-27T00:21:23.721Z,10.25
2023-03-27T00:23:52.470Z,10.16
2023-03-27T00:26:22.392Z,9.85
2023-03-27T00:28:50.789Z,9.71
2023-03-27T00:31:18.978Z,9.79
2023-03-27T00:33:47.100Z,9.68
2023-03-27T00:36:15.610Z,9.63
2023-03-27T00:38:44.097Z,9.52
2023-03-27T00:41:12.988Z,9.68
2023-03-27T00:43:44.220Z,9.77
2023-03-27T00:46:15.769Z,9.70
2023-03-27T00:48:47.412Z,9.73
2023-03-27T00:51:16.917Z,9.69
2023-03-27T00:53:46.450Z,9.55
2023-03-27T00:56:16.745Z,9.42
2023-03-27T00:58:55.945Z,9.53
2023-03-27T01:01:28.348Z,9.62
2023-03-27T01:04:00.890Z,9.64
2023-03-27T01:06:30.319Z,9.79
2023-03-27T01:08:59.757Z,9.71
2023-03-27T01:11:36.785Z,9.73
2023-03-27T01:14:10.647Z,9.66
2023-03-27T01:16:56.520Z,9.67
2023-03-27T01:19:57.214Z,9.71
2023-03-27T01:22:57.808Z,9.71
2023-03-27T01:25:45.559Z,9.75
2023-03-27T01:28:19.339Z,9.82
2023-03-27T01:31:07.481Z,9.99
2023-03-27T01:33:54.521Z,10.06
2023-03-27T01:36:45.486Z,10.07
2023-03-27T01:39:16.378Z,9.89
2023-03-27T01:42:10.809Z,9.94
2023-03-27T01:45:02.589Z,9.93
2023-03-27T01:47:43.545Z,10.02
2023-03-27T01:50:27.426Z,9.96
2023-03-27T01:53:04.239Z,9.93
2023-03-27T01:55:36.692Z,10.08
2023-03-27T01:58:14.148Z,10.08
2023-03-27T02:00:51.974Z,10.01
2023-03-27T02:03:34.986Z,9.98
2023-03-27T02:06:17.193Z,9.96
2023-03-27T02:08:53.685Z,10.08
2023-03-27T02:11:26.947Z,9.93
2023-03-27T02:14:00.667Z,9.93
2023-03-27T02:16:34.039Z,9.90
2023-03-27T02:19:12.826Z,9.87
2023-03-27T02:21:40.713Z,9.70
2023-03-27T02:24:09.176Z,10.00
2023-03-27T02:26:37.349Z,9.92
2023-03-27T02:29:32.988Z,9.86
2023-03-27T02:32:14.278Z,9.69
2023-03-27T02:35:01.052Z,9.61
2023-03-27T02:38:17.668Z,9.74
2023-03-27T02:41:13.752Z,9.78
2023-03-27T02:44:06.361Z,9.89
2023-03-27T02:46:51.569Z,9.85
2023-03-27T02:49:30.150Z,9.76
2023-03-27T02:52:08.239Z,9.69
2023-03-27T02:54:43.524Z,9.67
2023-03-27T02:57:17.098Z,9.59
2023-03-27T03:00:29.387Z,9.57
2023-03-27T03:03:28.024Z,9.43
2023-03-27T03:06:07.510Z,9.46
2023-03-27T03:08:39.273Z,9.47
2023-03-27T03:11:13.590Z,9.53
2023-03-27T03:13:41.755Z,9.43
2023-03-27T03:16:10.325Z,9.54
2023-03-27T03:18:38.362Z,9.59
2023-03-27T03:21:06.477Z,9.57
2023-03-27T03:23:35.242Z,9.35
2023-03-27T03:26:03.492Z,9.32
2023-03-27T03:29:01.329Z,9.14
2023-03-27T03:31:43.689Z,9.25
2023-03-27T03:34:14.625Z,9.44
2023-03-27T03:36:45.098Z,9.60
2023-03-27T03:39:13.347Z,9.63
2023-03-27T03:41:42.766Z,9.52
2023-03-27T03:44:11.131Z,9.54
2023-03-27T03:46:40.798Z,9.53
2023-03-27T03:49:09.651Z,9.45
2023-03-27T03:51:37.540Z,9.48
2023-03-27T03:54:09.580Z,9.45
2023-03-27T03:56:41.812Z,9.49
2023-03-27T03:59:11.319Z,9.59
2023-03-27T04:01:57.728Z,9.54
2023-03-27T04:04:30.925Z,9.29
2023-03-27T04:07:12.034Z,9.36
2023-03-27T04:09:45.289Z,9.43
2023-03-27T04:12:24.683Z,9.44
2023-03-27T04:14:58.235Z,9.67
2023-03-27T04:17:45.536Z,9.68
2023-03-27T04:20:13.577Z,9.58
2023-03-27T04:22:46.696Z,9.66
2023-03-27T04:25:18.289Z,9.68
2023-03-27T04:27:46.662Z,9.77
2023-03-27T04:30:37.295Z,9.87
2023-03-27T04:33:06.477Z,9.71
2023-03-27T04:36:06.129Z,9.56
2023-03-27T04:38:55.748Z,9.58
2023-03-27T04:41:24.070Z,9.60
2023-03-27T04:43:51.929Z,9.60
2023-03-27T04:46:19.731Z,9.46
2023-03-27T04:48:53.306Z,9.56
2023-03-27T04:51:42.342Z,9.53
2023-03-27T04:54:12.044Z,9.46
2023-03-27T04:56:45.862Z,9.44
2023-03-27T04:59:15.780Z,9.54
2023-03-27T05:01:47.075Z,9.59
2023-03-27T05:04:26.880Z,9.56
2023-03-27T05:07:12.444Z,9.56
2023-03-27T05:09:40.478Z,9.49
2023-03-27T05:12:10.941Z,9.42
2023-03-27T05:15:04.403Z,9.42
2023-03-27T05:17:42.081Z,9.39
2023-03-27T05:20:17.234Z,9.43
2023-03-27T05:22:45.859Z,9.60
2023-03-27T05:25:33.276Z,9.50
2023-03-27T05:28:04.127Z,9.65
2023-03-27T05:30:35.563Z,9.62
2023-03-27T05:33:23.419Z,9.61
2023-03-27T05:35:53.378Z,9.71
2023-03-27T05:38:23.004Z,9.67
2023-03-27T05:41:16.005Z,9.50
2023-03-27T05:43:48.546Z,9.63
2023-03-27T05:46:21.153Z,9.53
2023-03-27T05:48:59.529Z,9.47
2023-03-27T05:51:27.791Z,9.49
2023-03-27T05:53:55.765Z,9.46
2023-03-27T05:56:56.296Z,9.36
2023-03-27T05:59:24.310Z,9.56
2023-03-27T06:01:58.737Z,9.55
2023-03-27T06:04:35.266Z,9.47
2023-03-27T06:07:06.839Z,9.45
2023-03-27T06:09:39.374Z,9.44
2023-03-27T06:12:27.269Z,9.39
2023-03-27T06:15:05.997Z,9.33
2023-03-27T06:17:41.592Z,9.31
2023-03-27T06:20:12.733Z,9.34
2023-03-27T06:22:55.793Z,9.21
2023-03-27T06:25:32.406Z,9.22
2023-03-27T06:28:02.634Z,9.28
2023-03-27T06:30:33.038Z,9.20
2023-03-27T06:33:41.461Z,9.20
2023-03-27T06:36:20.942Z,9.32
2023-03-27T06:38:52.144Z,9.31
2023-03-27T06:41:20.434Z,9.14
2023-03-27T06:44:06.830Z,9.21
2023-03-27T06:46:55.101Z,9.30
2023-03-27T06:49:48.946Z,9.54
2023-03-27T06:52:22.882Z,9.62
2023-03-27T06:54:51.161Z,9.63
2023-03-27T06:57:19.097Z,9.76
2023-03-27T06:59:53.638Z,9.80
2023-03-27T07:02:25.782Z,9.85
2023-03-27T07:05:04.308Z,10.02
2023-03-27T07:07:41.850Z,10.08
2023-03-27T07:10:12.446Z,10.22
2023-03-27T07:12:45.855Z,10.48
2023-03-27T07:15:18.031Z,10.50
2023-03-27T07:17:54.245Z,10.70
2023-03-27T07:20:22.954Z,10.92
2023-03-27T07:22:51.484Z,10.93
2023-03-27T07:25:38.462Z,10.92
2023-03-27T07:28:16.930Z,11.05
2023-03-27T07:30:45.067Z,10.69
2023-03-27T07:33:13.382Z,10.84
2023-03-27T07:35:43.784Z,10.65
2023-03-27T07:38:34.548Z,10.59
2023-03-27T07:41:24.484Z,10.81
2023-03-27T07:44:11.393Z,10.90
2023-03-27T07:47:00.648Z,11.02
2023-03-27T07:49:39.356Z,11.05
2023-03-27T07:52:16.557Z,11.19
2023-03-27T07:54:54.499Z,11.45
2023-03-27T07:57:24.889Z,11.61
2023-03-27T07:59:53.005Z,11.76
2023-03-27T08:02:40.130Z,11.93
2023-03-27T08:05:10.126Z,12.16
2023-03-27T08:07:41.244Z,12.32
2023-03-27T08:10:10.833Z,12.45
2023-03-27T08:12:52.242Z,12.50
2023-03-27T08:15:20.982Z,12.68
2023-03-27T08:17:54.024Z,12.84
2023-03-27T08:20:25.361Z,12.95
2023-03-27T08:22:53.814Z,12.98
2023-03-27T08:25:43.151Z,13.15
2023-03-27T08:28:11.757Z,13.25
2023-03-27T08:30:42.007Z,13.46
2023-03-27T08:33:10.894Z,13.56
2023-03-27T08:35:38.916Z,13.63
2023-03-27T08:38:13.790Z,13.70
2023-03-27T08:41:30.951Z,13.91
2023-03-27T08:44:20.233Z,14.15
2023-03-27T08:47:00.393Z,14.37
2023-03-27T08:49:36.530Z,14.63
2023-03-27T08:52:34.507Z,14.56
2023-03-27T08:55:13.709Z,14.61
2023-03-27T08:57:51.523Z,14.68
2023-03-27T09:00:28.077Z,14.74
2023-03-27T09:03:19.763Z,14.87
2023-03-27T09:05:58.210Z,14.87
2023-03-27T09:08:32.310Z,15.01
2023-03-27T09:11:13.704Z,15.07
2023-03-27T09:13:52.751Z,15.00
2023-03-27T09:16:34.515Z,15.15
2023-03-27T09:19:31.227Z,15.19
2023-03-27T09:22:02.837Z,15.22
2023-03-27T09:25:02.682Z,15.39
2023-03-27T09:27:49.789Z,15.44
2023-03-27T09:30:53.344Z,15.56
2023-03-27T09:33:29.745Z,15.66
2023-03-27T09:35:59.317Z,15.87
2023-03-27T09:38:45.060Z,15.92
2023-03-27T09:41:30.736Z,15.76
2023-03-27T09:44:06.675Z,15.51
2023-03-27T09:46:44.222Z,15.63
2023-03-27T09:49:13.748Z,15.89
2023-03-27T09:51:51.449Z,16.20
2023-03-27T09:54:54.041Z,16.39
2023-03-27T09:57:38.844Z,16.54
2023-03-27T10:00:31.240Z,16.65
2023-03-27T10:03:14.090Z,16.69
2023-03-27T10:05:49.900Z,16.73
2023-03-27T10:08:27.246Z,16.98
2023-03-27T10:11:16.542Z,17.20
2023-03-27T10:14:00.631Z,17.47
2023-03-27T10:16:30.086Z,17.57
2023-03-27T10:19:06.847Z,17.92
2023-03-27T10:21:43.516Z,18.08
2023-03-27T10:24:26.414Z,18.31
2023-03-27T10:27:25.681Z,18.27
2023-03-27T10:30:34.790Z,18.39
2023-03-27T10:33:38.007Z,18.53
2023-03-27T10:36:40.761Z,18.96
2023-03-27T10:39:15.338Z,19.24
2023-03-27T10:42:08.302Z,19.73
2023-03-27T10:44:38.612Z,19.97
2023-03-27T10:47:20.860Z,19.75
2023-03-27T10:49:55.160Z,19.91
2023-03-27T10:53:05.508Z,19.94
2023-03-27T10:56:00.237Z,19.62
2023-03-27T10:58:34.138Z,19.84
2023-03-27T11:01:19.070Z,20.18
2023-03-27T11:03:58.283Z,20.39
2023-03-27T11:06:31.516Z,20.51
2023-03-27T11:09:24.522Z,21.01
2023-03-27T11:12:10.545Z,21.01
2023-03-27T11:15:31.743Z,21.10
2023-03-27T11:18:09.103Z,21.27
2023-03-27T11:21:02.793Z,21.53
2023-03-27T11:24:04.154Z,21.52
2023-03-27T11:26:59.585Z,21.71
2023-03-27T11:29:32.974Z,22.26
2023-03-27T11:32:11.513Z,22.42
2023-03-27T11:34:57.934Z,22.53
2023-03-27T11:38:00.846Z,23.01
2023-03-27T11:40:46.104Z,23.13
2023-03-27T11:43:16.477Z,23.08
2023-03-27T11:45:57.159Z,23.81
2023-03-27T11:48:49.647Z,23.70
2023-03-27T11:51:43.648Z,24.10
2023-03-27T11:54:30.307Z,23.38
2023-03-27T11:57:10.887Z,23.54
2023-03-27T12:00:27.718Z,24.39
2023-03-27T12:03:07.005Z,24.43
2023-03-27T12:06:14.877Z,24.89
2023-03-27T12:08:51.817Z,25.20
2023-03-27T12:11:22.125Z,26.13
2023-03-27T12:14:17.702Z,25.75
2023-03-27T12:17:10.227Z,25.03
2023-03-27T12:20:16.319Z,24.24
2023-03-27T12:23:04.197Z,23.81
2023-03-27T12:26:01.297Z,23.35
2023-03-27T12:29:23.309Z,23.02
2023-03-27T12:32:16.155Z,22.78
2023-03-27T12:35:00.932Z,22.86
2023-03-27T12:38:30.574Z,22.64
2023-03-27T12:41:19.417Z,22.40
2023-03-27T12:44:15.126Z,22.19
2023-03-27T12:47:21.902Z,22.10
2023-03-27T12:50:01.275Z,22.24
2023-03-27T12:52:38.652Z,22.02
2023-03-27T12:55:17.738Z,22.26
2023-03-27T12:57:58.286Z,23.51
2023-03-27T13:01:00.824Z,25.72
2023-03-27T13:03:53.554Z,27.75
2023-03-27T13:06:46.320Z,29.40
2023-03-27T13:09:28.629Z,30.08
2023-03-27T13:12:28.861Z,30.62
2023-03-27T13:15:18.143Z,31.60
2023-03-27T13:17:55.786Z,32.69
2023-03-27T13:20:57.144Z,33.64
2023-03-27T13:23:43.479Z,34.02
2023-03-27T13:26:26.148Z,31.96
2023-03-27T13:28:57.260Z,29.27
2023-03-27T13:31:47.642Z,27.79
2023-03-27T13:34:41.574Z,26.40
2023-03-27T13:37:15.060Z,25.09
2023-03-27T13:39:59.022Z,24.48
2023-03-27T13:42:41.716Z,24.12
2023-03-27T13:45:47.170Z,23.79
2023-03-27T13:48:59.334Z,23.71
2023-03-27T13:51:53.425Z,23.62
2023-03-27T13:54:36.946Z,23.36
2023-03-27T13:57:35.174Z,23.38
2023-03-27T14:00:24.418Z,23.47
2023-03-27T14:03:32.094Z,23.54
2023-03-27T14:06:36.408Z,23.44
2023-03-27T14:09:33.566Z,23.64
2023-03-27T14:12:32.190Z,23.48
2023-03-27T14:15:30.653Z,23.08
2023-03-27T14:18:56.265Z,24.06
2023-03-27T14:21:38.430Z,25.18
2023-03-27T14:24:24.985Z,25.28
2023-03-27T14:27:01.558Z,24.88
2023-03-27T14:29:29.827Z,24.67
2023-03-27T14:32:14.075Z,24.25
2023-03-27T14:35:05.268Z,24.01
2023-03-27T14:37:39.130Z,23.45
2023-03-27T14:40:42.802Z,23.48
2023-03-27T14:43:17.158Z,23.20
2023-03-27T14:45:47.120Z,22.90
2023-03-27T14:48:27.245Z,22.68
2023-03-27T14:51:02.224Z,22.83
2023-03-27T14:53:44.399Z,22.68
2023-03-27T14:56:28.368Z,22.60
2023-03-27T14:59:11.385Z,22.60
2023-03-27T15:01:59.350Z,22.80
2023-03-27T15:04:30.322Z,23.38
2023-03-27T15:07:15.656Z,23.25
2023-03-27T15:10:06.160Z,23.21
2023-03-27T15:12:54.190Z,23.14
2023-03-27T15:15:24.026Z,23.09
2023-03-27T15:17:55.377Z,23.32
2023-03-27T15:20:28.108Z,23.17
2023-03-27T15:23:36.949Z,22.90
2023-03-27T15:26:12.547Z,22.20
2023-03-27T15:28:50.128Z,22.27
2023-03-27T15:31:19.031Z,22.20
2023-03-27T15:34:02.579Z,22.32
2023-03-27T15:36:34.857Z,22.06
2023-03-27T15:39:05.160Z,22.39
2023-03-27T15:41:33.054Z,22.81
2023-03-27T15:44:18.391Z,22.97
2023-03-27T15:46:48.774Z,23.56
2023-03-27T15:49:21.626Z,23.35
2023-03-27T15:51:49.859Z,23.44
2023-03-27T15:54:36.367Z,23.43
2023-03-27T15:57:11.795Z,23.73
2023-03-27T15:59:52.531Z,23.51
2023-03-27T16:02:25.640Z,23.34
2023-03-27T16:04:57.366Z,22.98
2023-03-27T16:07:42.511Z,22.82
2023-03-27T16:10:11.469Z,22.59
2023-03-27T16:12:52.075Z,22.12
2023-03-27T16:15:34.756Z,21.75
2023-03-27T16:18:17.375Z,21.34
2023-03-27T16:20:45.389Z,21.56
2023-03-27T16:23:13.328Z,21.62
2023-03-27T16:25:41.647Z,21.64
2023-03-27T16:28:11.446Z,21.61
2023-03-27T16:30:41.600Z,21.60
2023-03-27T16:33:18.416Z,21.52
2023-03-27T16:35:47.714Z,21.40
2023-03-27T16:38:16.724Z,21.19
2023-03-27T16:40:45.725Z,20.88
2023-03-27T16:43:13.648Z,21.02
2023-03-27T16:45:41.896Z,20.79
2023-03-27T16:48:10.875Z,20.72
2023-03-27T16:50:39.120Z,20.75
2023-03-27T16:53:07.096Z,20.51
2023-03-27T16:55:35.083Z,20.32
2023-03-27T16:58:03.922Z,20.27
2023-03-27T17:00:32.128Z,20.13
2023-03-27T17:03:00.205Z,20.06
2023-03-27T17:05:34.095Z,19.89
2023-03-27T17:08:02.800Z,19.81
2023-03-27T17:10:31.667Z,19.65
2023-03-27T17:12:59.631Z,19.49
2023-03-27T17:15:27.683Z,19.47
2023-03-27T17:17:55.619Z,19.24
2023-03-27T17:20:23.445Z,19.17
2023-03-27T17:22:51.366Z,19.07
2023-03-27T17:25:19.197Z,19.04
2023-03-27T17:27:47.096Z,18.92
2023-03-27T17:30:21.453Z,18.74
2023-03-27T17:32:55.330Z,18.66
2023-03-27T17:35:23.732Z,18.52
2023-03-27T17:37:51.840Z,18.12
2023-03-27T17:40:19.669Z,18.18
2023-03-27T17:42:47.532Z,18.10
2023-03-27T17:45:19.825Z,18.11
2023-03-27T17:47:47.691Z,18.03
2023-03-27T17:50:15.789Z,17.71
2023-03-27T17:52:43.741Z,17.61
2023-03-27T17:55:11.770Z,17.54
2023-03-27T17:57:39.943Z,17.52
2023-03-27T18:00:09.802Z,17.35
2023-03-27T18:02:40.836Z,17.33
2023-03-27T18:05:09.240Z,17.31
2023-03-27T18:07:37.076Z,17.11
2023-03-27T18:10:05.719Z,16.93
2023-03-27T18:12:34.169Z,16.93
2023-03-27T18:15:02.288Z,17.04
2023-03-27T18:17:30.243Z,16.82
2023-03-27T18:19:58.158Z,16.89
2023-03-27T18:22:26.010Z,16.80
2023-03-27T18:24:53.888Z,16.81
2023-03-27T18:27:21.709Z,16.83
2023-03-27T18:29:49.438Z,16.63
2023-03-27T18:32:17.293Z,16.72
2023-03-27T18:34:45.096Z,16.73
2023-03-27T18:37:13.065Z,16.65
2023-03-27T18:39:40.933Z,16.37
2023-03-27T18:42:08.939Z,16.25
2023-03-27T18:44:39.322Z,16.20
2023-03-27T18:47:08.897Z,16.19
2023-03-27T18:49:37.119Z,16.25
2023-03-27T18:52:05.390Z,16.16
2023-03-27T18:54:33.387Z,16.22
2023-03-27T18:57:01.516Z,15.98
2023-03-27T18:59:29.516Z,15.99
2023-03-27T19:01:57.729Z,15.88
2023-03-27T19:04:25.736Z,15.90
2023-03-27T19:06:53.591Z,15.98
2023-03-27T19:09:25.514Z,15.86
2023-03-27T19:12:02.531Z,15.81
2023-03-27T19:14:49.117Z,15.67
2023-03-27T19:17:35.504Z,15.72
2023-03-27T19:20:03.689Z,15.50
2023-03-27T19:22:36.046Z,15.51
2023-03-27T19:25:21.258Z,15.53
2023-03-27T19:27:49.125Z,15.40
2023-03-27T19:30:18.497Z,15.19
2023-03-27T19:32:46.578Z,15.08
2023-03-27T19:35:14.649Z,15.07
2023-03-27T19:37:42.925Z,15.09
2023-03-27T19:40:11.526Z,15.07
2023-03-27T19:42:39.437Z,15.02
2023-03-27T19:45:07.885Z,14.86
2023-03-27T19:47:35.824Z,14.74
2023-03-27T19:50:07.036Z,14.67
2023-03-27T19:52:54.487Z,14.86
2023-03-27T19:55:33.750Z,14.70
2023-03-27T19:58:01.702Z,14.56
2023-03-27T20:00:31.498Z,14.53
2023-03-27T20:02:59.951Z,14.65
2023-03-27T20:05:29.744Z,14.49
2023-03-27T20:07:57.666Z,14.44
2023-03-27T20:10:27.576Z,14.30
2023-03-27T20:12:55.549Z,14.35
2023-03-27T20:15:23.606Z,14.26
2023-03-27T20:17:51.568Z,14.26
2023-03-27T20:20:20.099Z,14.18
2023-03-27T20:22:57.057Z,14.09
2023-03-27T20:25:28.247Z,13.95
2023-03-27T20:27:56.659Z,13.89
2023-03-27T20:30:25.268Z,13.79
2023-03-27T20:32:53.905Z,13.77
2023-03-27T20:35:24.808Z,13.83
2023-03-27T20:37:56.592Z,13.77
2023-03-27T20:40:26.360Z,13.67
2023-03-27T20:43:13.044Z,13.59
2023-03-27T20:45:45.940Z,13.51
2023-03-27T20:48:15.268Z,13.37
2023-03-27T20:50:49.229Z,13.28
2023-03-27T20:53:31.680Z,13.26
2023-03-27T20:56:03.812Z,13.19
2023-03-27T20:58:38.650Z,13.01
2023-03-27T21:01:09.348Z,13.05
2023-03-27T21:03:42.066Z,13.01
2023-03-27T21:06:14.338Z,12.98
2023-03-27T21:08:42.450Z,12.99
2023-03-27T21:11:10.895Z,13.06
2023-03-27T21:13:38.846Z,13.00
2023-03-27T21:16:08.767Z,12.91
2023-03-27T21:18:36.712Z,12.95
2023-03-27T21:21:05.186Z,12.79
2023-03-27T21:23:34.753Z,12.85
2023-03-27T21:26:02.732Z,12.53
2023-03-27T21:28:30.711Z,12.43
2023-03-27T21:30:59.907Z,12.33
2023-03-27T21:33:27.814Z,12.32
2023-03-27T21:35:57.242Z,12.32
2023-03-27T21:38:25.705Z,12.42
2023-03-27T21:40:53.616Z,12.50
2023-03-27T21:43:21.630Z,12.51
2023-03-27T21:45:50.493Z,12.47
2023-03-27T21:48:18.416Z,12.39
2023-03-27T21:50:46.788Z,12.25
2023-03-27T21:53:15.020Z,12.34
2023-03-27T21:55:43.044Z,12.43
2023-03-27T21:58:11.298Z,12.30
2023-03-27T22:00:39.170Z,12.19
2023-03-27T22:03:07.186Z,12.18
2023-03-27T22:05:39.119Z,12.20
2023-03-27T22:08:07.181Z,12.23
2023-03-27T22:10:35.675Z,12.23
2023-03-27T22:13:04.117Z,12.12
2023-03-27T22:15:32.719Z,12.11
2023-03-27T22:18:01.488Z,12.11
2023-03-27T22:20:29.489Z,12.06
2023-03-27T22:22:57.265Z,12.07
2023-03-27T22:25:25.185Z,12.13
2023-03-27T22:27:53.225Z,12.18
2023-03-27T22:30:21.225Z,12.01
2023-03-27T22:32:49.134Z,12.12
2023-03-27T22:35:17.220Z,11.99
2023-03-27T22:37:45.103Z,11.96
2023-03-27T22:40:13.193Z,11.94
2023-03-27T22:42:41.413Z,11.89
2023-03-27T22:45:09.717Z,11.98
2023-03-27T22:47:37.620Z,11.84
2023-03-27T22:50:06.637Z,11.63
2023-03-27T22:52:34.867Z,11.55
2023-03-27T22:55:02.791Z,11.36
2023-03-27T22:57:30.654Z,11.24
2023-03-27T22:59:58.546Z,11.22
2023-03-27T23:02:26.650Z,11.22
2023-03-27T23:04:55.141Z,11.26
2023-03-27T23:07:23.462Z,11.22
2023-03-27T23:09:51.415Z,11.08
2023-03-27T23:12:19.376Z,11.19
2023-03-27T23:14:47.213Z,11.16
2023-03-27T23:17:15.139Z,11.01
2023-03-27T23:19:43.077Z,10.90
2023-03-27T23:22:11.005Z,10.91
2023-03-27T23:24:38.895Z,10.76
2023-03-27T23:27:08.856Z,10.66
2023-03-27T23:29:36.724Z,10.62
2023-03-27T23:32:04.753Z,10.78
2023-03-27T23:34:32.599Z,10.86
2023-03-27T23:37:00.482Z,10.64
2023-03-27T23:39:28.429Z,10.44
2023-03-27T23:41:56.314Z,10.10
2023-03-27T23:44:24.154Z,10.08
2023-03-27T23:46:51.988Z,10.07
2023-03-27T23:49:19.856Z,10.12
2023-03-27T23:51:47.819Z,10.16
2023-03-27T23:54:15.707Z,10.09
2023-03-27T23:56:43.646Z,9.86
2023-03-27T23:59:11.749Z,9.92
